sensor_id;sensor_type;location;lat;lon;timestamp;temperature;humidity
44731;DHT22;30458;47.448;19.032;2022-11-02T00:05:38;12.80;99.90
44731;DHT22;30458;47.448;19.032;2022-11-02T00:15:39;12.60;99.90
44731;DHT22;30458;47.448;19.032;2022-11-02T00:25:42;12.50;99.90
44731;DHT22;30458;47.448;19.032;2022-11-02T00:35:47;12.40;99.90
44731;DHT22;30458;47.448;19.032;2022-11-02T00:45:47;12.40;99.90
44731;DHT22;30458;47.448;19.032;2022-11-02T00:55:50;12.40;99.90
44731;DHT22;30458;47.448;19.032;2022-11-02T01:05:53;12.30;99.90
44731;DHT22;30458;47.448;19.032;2022-11-02T01:15:54;12.30;99.90
44731;DHT22;30458;47.448;19.032;2022-11-02T01:25:58;12.10;99.90
44731;DHT22;30458;47.448;19.032;2022-11-02T01:36:02;12.10;99.90
44731;DHT22;30458;47.448;19.032;2022-11-02T01:56:12;12.10;99.90
44731;DHT22;30458;47.448;19.032;2022-11-02T02:06:16;12.00;99.90
44731;DHT22;30458;47.448;19.032;2022-11-02T02:16:32;12.00;99.90
44731;DHT22;30458;47.448;19.032;2022-11-02T02:47:12;12.20;99.90
44731;DHT22;30458;47.448;19.032;2022-11-02T02:57:20;12.20;99.90
44731;DHT22;30458;47.448;19.032;2022-11-02T03:07:29;12.30;99.90
44731;DHT22;30458;47.448;19.032;2022-11-02T03:17:39;12.30;99.90
44731;DHT22;30458;47.448;19.032;2022-11-02T03:27:59;12.10;99.90
44731;DHT22;30458;47.448;19.032;2022-11-02T03:38:31;12.10;99.90
44731;DHT22;30458;47.448;19.032;2022-11-02T03:48:45;12.20;99.90
44731;DHT22;30458;47.448;19.032;2022-11-02T03:58:49;12.40;99.90
44731;DHT22;30458;47.448;19.032;2022-11-02T04:08:55;12.40;99.90
44731;DHT22;30458;47.448;19.032;2022-11-02T04:18:58;12.50;99.90
44731;DHT22;30458;47.448;19.032;2022-11-02T04:29:18;12.40;99.90
44731;DHT22;30458;47.448;19.032;2022-11-02T04:39:20;12.30;99.90
44731;DHT22;30458;47.448;19.032;2022-11-02T04:49:25;12.40;99.90
44731;DHT22;30458;47.448;19.032;2022-11-02T04:59:27;12.20;99.90
44731;DHT22;30458;47.448;19.032;2022-11-02T05:09:28;12.40;99.90
44731;DHT22;30458;47.448;19.032;2022-11-02T05:19:29;12.50;99.90
44731;DHT22;30458;47.448;19.032;2022-11-02T05:29:29;12.60;99.90
44731;DHT22;30458;47.448;19.032;2022-11-02T05:39:35;12.70;99.90
44731;DHT22;30458;47.448;19.032;2022-11-02T05:49:39;12.60;99.90
44731;DHT22;30458;47.448;19.032;2022-11-02T05:59:40;12.40;99.90
44731;DHT22;30458;47.448;19.032;2022-11-02T06:09:40;12.30;99.90
44731;DHT22;30458;47.448;19.032;2022-11-02T06:19:41;12.50;99.90
44731;DHT22;30458;47.448;19.032;2022-11-02T06:29:42;12.50;99.90
44731;DHT22;30458;47.448;19.032;2022-11-02T06:39:42;12.60;99.90
44731;DHT22;30458;47.448;19.032;2022-11-02T06:49:48;12.60;99.90
44731;DHT22;30458;47.448;19.032;2022-11-02T06:59:51;12.70;99.90
44731;DHT22;30458;47.448;19.032;2022-11-02T07:09:54;12.90;99.90
44731;DHT22;30458;47.448;19.032;2022-11-02T07:19:57;13.20;99.90
44731;DHT22;30458;47.448;19.032;2022-11-02T07:29:58;13.40;99.90
44731;DHT22;30458;47.448;19.032;2022-11-02T07:39:59;13.50;99.90
44731;DHT22;30458;47.448;19.032;2022-11-02T07:50:02;13.60;99.90
44731;DHT22;30458;47.448;19.032;2022-11-02T08:00:03;13.80;99.90
44731;DHT22;30458;47.448;19.032;2022-11-02T08:10:12;14.50;99.90
44731;DHT22;30458;47.448;19.032;2022-11-02T08:20:13;16.10;99.90
44731;DHT22;30458;47.448;19.032;2022-11-02T08:30:13;15.00;99.90
44731;DHT22;30458;47.448;19.032;2022-11-02T08:40:14;14.70;99.90
44731;DHT22;30458;47.448;19.032;2022-11-02T08:50:15;14.20;99.90
44731;DHT22;30458;47.448;19.032;2022-11-02T09:00:20;13.80;99.90
44731;DHT22;30458;47.448;19.032;2022-11-02T09:10:21;13.90;99.90
44731;DHT22;30458;47.448;19.032;2022-11-02T09:20:24;14.60;99.90
44731;DHT22;30458;47.448;19.032;2022-11-02T09:30:32;15.30;99.90
44731;DHT22;30458;47.448;19.032;2022-11-02T09:40:38;15.30;99.90
44731;DHT22;30458;47.448;19.032;2022-11-02T10:00:51;15.30;99.90
44731;DHT22;30458;47.448;19.032;2022-11-02T10:21:30;15.70;99.90
44731;DHT22;30458;47.448;19.032;2022-11-02T10:31:32;15.90;99.90
44731;DHT22;30458;47.448;19.032;2022-11-02T10:51:57;16.10;99.90
44731;DHT22;30458;47.448;19.032;2022-11-02T11:12:12;16.60;99.90
44731;DHT22;30458;47.448;19.032;2022-11-02T11:22:43;16.90;99.90
44731;DHT22;30458;47.448;19.032;2022-11-02T11:32:46;17.10;99.90
44731;DHT22;30458;47.448;19.032;2022-11-02T11:42:52;17.30;99.90
44731;DHT22;30458;47.448;19.032;2022-11-02T12:03:17;17.70;99.90
44731;DHT22;30458;47.448;19.032;2022-11-02T12:55:14;17.80;99.90
44731;DHT22;30458;47.448;19.032;2022-11-02T13:05:23;17.90;99.90
44731;DHT22;30458;47.448;19.032;2022-11-02T13:15:27;17.80;99.90
44731;DHT22;30458;47.448;19.032;2022-11-02T13:25:37;17.90;99.90
44731;DHT22;30458;47.448;19.032;2022-11-02T13:35:40;18.00;99.90
44731;DHT22;30458;47.448;19.032;2022-11-02T13:56:00;17.80;99.90
44731;DHT22;30458;47.448;19.032;2022-11-02T14:06:10;17.80;99.90
44731;DHT22;30458;47.448;19.032;2022-11-02T14:26:55;17.80;99.90
44731;DHT22;30458;47.448;19.032;2022-11-02T14:37:10;17.70;99.90
44731;DHT22;30458;47.448;19.032;2022-11-02T14:47:16;17.60;99.90
44731;DHT22;30458;47.448;19.032;2022-11-02T14:57:32;17.40;99.90
44731;DHT22;30458;47.448;19.032;2022-11-02T15:27:41;17.20;99.90
44731;DHT22;30458;47.448;19.032;2022-11-02T15:37:43;17.10;99.90
44731;DHT22;30458;47.448;19.032;2022-11-02T16:08:33;16.90;99.90
44731;DHT22;30458;47.448;19.032;2022-11-02T16:18:39;16.80;99.90
44731;DHT22;30458;47.448;19.032;2022-11-02T16:28:40;16.70;99.90
44731;DHT22;30458;47.448;19.032;2022-11-02T16:59:11;16.30;99.90
44731;DHT22;30458;47.448;19.032;2022-11-02T17:09:29;16.10;99.90
44731;DHT22;30458;47.448;19.032;2022-11-02T17:40:34;15.90;99.90
44731;DHT22;30458;47.448;19.032;2022-11-02T17:50:39;15.90;99.90
44731;DHT22;30458;47.448;19.032;2022-11-02T18:00:40;15.80;99.90
44731;DHT22;30458;47.448;19.032;2022-11-02T18:10:45;15.60;99.90
44731;DHT22;30458;47.448;19.032;2022-11-02T18:20:49;15.50;99.90
44731;DHT22;30458;47.448;19.032;2022-11-02T18:30:51;15.40;99.90
44731;DHT22;30458;47.448;19.032;2022-11-02T18:40:52;15.20;99.90
44731;DHT22;30458;47.448;19.032;2022-11-02T18:50:53;15.10;99.90
44731;DHT22;30458;47.448;19.032;2022-11-02T19:00:54;15.00;99.90
44731;DHT22;30458;47.448;19.032;2022-11-02T19:10:57;14.80;99.90
44731;DHT22;30458;47.448;19.032;2022-11-02T19:20:58;14.70;99.90
44731;DHT22;30458;47.448;19.032;2022-11-02T19:31:02;14.70;99.90
44731;DHT22;30458;47.448;19.032;2022-11-02T19:41:07;14.80;99.90
44731;DHT22;30458;47.448;19.032;2022-11-02T19:51:28;14.70;99.90
44731;DHT22;30458;47.448;19.032;2022-11-02T20:01:37;14.70;99.90
44731;DHT22;30458;47.448;19.032;2022-11-02T20:11:38;14.60;99.90
44731;DHT22;30458;47.448;19.032;2022-11-02T20:21:43;14.60;99.90
44731;DHT22;30458;47.448;19.032;2022-11-02T20:31:47;14.60;99.90
44731;DHT22;30458;47.448;19.032;2022-11-02T20:41:50;14.60;99.90
44731;DHT22;30458;47.448;19.032;2022-11-02T20:51:55;14.60;99.90
44731;DHT22;30458;47.448;19.032;2022-11-02T21:01:56;14.50;99.90
44731;DHT22;30458;47.448;19.032;2022-11-02T21:11:57;14.50;99.90
44731;DHT22;30458;47.448;19.032;2022-11-02T21:22:16;14.40;99.90
44731;DHT22;30458;47.448;19.032;2022-11-02T21:32:17;14.30;99.90
44731;DHT22;30458;47.448;19.032;2022-11-02T21:42:20;14.20;99.90
44731;DHT22;30458;47.448;19.032;2022-11-02T21:52:21;14.10;99.90
44731;DHT22;30458;47.448;19.032;2022-11-02T22:02:22;14.00;99.90
44731;DHT22;30458;47.448;19.032;2022-11-02T22:12:25;13.90;99.90
44731;DHT22;30458;47.448;19.032;2022-11-02T22:22:47;13.70;99.90
44731;DHT22;30458;47.448;19.032;2022-11-02T22:32:50;13.70;99.90
44731;DHT22;30458;47.448;19.032;2022-11-02T22:42:53;13.80;99.90
44731;DHT22;30458;47.448;19.032;2022-11-02T22:52:56;13.90;99.90
44731;DHT22;30458;47.448;19.032;2022-11-02T23:02:56;13.90;99.90
44731;DHT22;30458;47.448;19.032;2022-11-02T23:12:57;14.00;99.90
44731;DHT22;30458;47.448;19.032;2022-11-02T23:22:58;13.90;99.90
44731;DHT22;30458;47.448;19.032;2022-11-02T23:33:21;14.00;99.90
44731;DHT22;30458;47.448;19.032;2022-11-02T23:43:22;14.00;99.90
44731;DHT22;30458;47.448;19.032;2022-11-02T23:53:25;14.10;99.90
